Time;durP1;ratioP1;P1;durP2;ratioP2;P2;SDS_P1;SDS_P2;PMS_P1;PMS_P2;Temp;Humidity;BMP_temperature;BMP_pressure;BME280_temperature;BME280_humidity;BME280_pressure;Samples;Min_cycle;Max_cycle;Signal;HPM_P1;HPM_P2
2023/10/30 00:01:16;;;;;;;4.67;2.07;;;;;;;12.82;91.81;64295.72;5013971;28;20213;-54
2023/10/30 00:03:41;;;;;;;4.63;2.70;;;;;;;12.70;93.37;64287.06;5031736;28;20213;-52
2023/10/30 00:06:07;;;;;;;9.47;2.50;;;;;;;12.62;93.35;64276.31;5031915;28;20578;-54
2023/10/30 00:08:34;;;;;;;7.75;2.70;;;;;;;12.62;94.42;64278.84;5031544;28;20209;-54
2023/10/30 00:10:59;;;;;;;4.57;2.60;;;;;;;12.63;94.34;64279.91;5013847;28;20194;-54
2023/10/30 00:13:25;;;;;;;4.60;2.33;;;;;;;12.61;94.25;64275.19;5031680;28;20835;-53
2023/10/30 00:15:50;;;;;;;4.25;2.50;;;;;;;12.62;94.87;64278.84;5031763;28;20296;-54
2023/10/30 00:18:16;;;;;;;3.43;2.67;;;;;;;12.61;94.99;64275.19;5031153;28;20220;-54
2023/10/30 00:20:41;;;;;;;5.93;3.00;;;;;;;12.61;94.75;64277.72;5031899;28;20241;-54
2023/10/30 00:23:07;;;;;;;3.85;2.10;;;;;;;12.60;94.52;64274.66;5031680;28;20688;-53
2023/10/30 00:25:32;;;;;;;8.30;3.10;;;;;;;12.55;95.56;64266.09;5031623;28;20735;-52
2023/10/30 00:28:00;;;;;;;4.90;2.53;;;;;;;12.52;95.36;64265.88;5031615;28;20249;-55
2023/10/30 00:30:28;;;;;;;8.43;2.55;;;;;;;12.54;95.42;64267.53;5031503;28;20209;-56
2023/10/30 00:32:53;;;;;;;9.13;3.15;;;;;;;12.55;94.31;64271.69;5013840;28;20238;-54
2023/10/30 00:35:19;;;;;;;4.10;2.47;;;;;;;12.59;94.64;64275.53;5031425;28;20589;-55
2023/10/30 00:37:44;;;;;;;6.30;3.03;;;;;;;12.60;94.32;64274.66;5031346;28;20214;-53
2023/10/30 00:40:11;;;;;;;4.28;2.08;;;;;;;12.45;95.04;64260.19;5031329;28;20209;-53
2023/10/30 00:42:36;;;;;;;6.17;2.50;;;;;;;12.46;96.21;64258.75;5031303;28;20305;-54
2023/10/30 00:45:04;;;;;;;6.10;2.37;;;;;;;12.47;95.19;64262.94;5031571;28;20256;-54
2023/10/30 00:47:30;;;;;;;4.43;2.40;;;;;;;12.42;95.89;64256.91;5031680;28;20217;-54
2023/10/30 00:49:55;;;;;;;4.68;1.90;;;;;;;12.49;95.17;64262.59;5031430;28;20409;-55
2023/10/30 00:52:21;;;;;;;2.87;1.90;;;;;;;12.53;94.43;64268.94;5031078;28;20275;-53
2023/10/30 00:54:47;;;;;;;2.92;2.30;;;;;;;12.48;96.26;64260.94;5031221;28;20198;-53
2023/10/30 00:57:12;;;;;;;5.03;3.40;;;;;;;12.54;94.58;64265.00;5031239;28;20217;-53
2023/10/30 00:59:37;;;;;;;7.10;2.45;;;;;;;12.41;94.95;64255.78;5031168;28;20194;-54
2023/10/30 01:02:03;;;;;;;4.30;2.40;;;;;;;12.38;95.24;64250.53;5031305;28;20695;-54
2023/10/30 01:04:28;;;;;;;5.17;2.30;;;;;;;12.37;95.51;64248.88;5031031;28;20279;-54
2023/10/30 01:06:54;;;;;;;3.77;2.03;;;;;;;12.35;95.55;64247.25;5013623;28;20217;-54
2023/10/30 01:09:19;;;;;;;7.63;2.23;;;;;;;12.26;97.00;64234.84;5013100;28;20212;-54
2023/10/30 01:11:45;;;;;;;3.63;2.30;;;;;;;12.21;98.01;64234.41;5013110;28;20688;-57
2023/10/30 01:14:10;;;;;;;4.17;2.20;;;;;;;12.19;97.13;64229.13;5031154;28;20221;-54
2023/10/30 01:16:36;;;;;;;5.90;2.72;;;;;;;12.27;97.41;64237.91;5030765;28;20217;-55
2023/10/30 01:19:02;;;;;;;3.80;2.25;;;;;;;12.17;98.46;64230.03;5030889;28;20213;-55
2023/10/30 01:21:27;;;;;;;5.32;2.45;;;;;;;12.29;96.93;64240.09;5030639;28;20214;-54
2023/10/30 01:23:53;;;;;;;3.35;2.33;;;;;;;12.23;97.35;64233.53;5031098;28;20250;-55
2023/10/30 01:26:18;;;;;;;8.30;2.63;;;;;;;12.12;98.08;64221.47;5030985;28;20209;-55
2023/10/30 01:28:44;;;;;;;6.88;2.03;;;;;;;12.10;98.39;64221.81;5030732;28;20272;-54
2023/10/30 01:31:10;;;;;;;3.27;2.30;;;;;;;12.01;99.20;64212.50;5030920;28;20287;-54
2023/10/30 01:33:35;;;;;;;8.97;2.27;;;;;;;11.94;99.54;64204.28;5030733;28;20206;-55
2023/10/30 01:36:01;;;;;;;5.67;2.33;;;;;;;12.01;99.85;64212.50;5030774;28;20589;-59
2023/10/30 01:38:26;;;;;;;2.87;2.17;;;;;;;12.03;99.16;64211.59;5030563;28;20676;-53
2023/10/30 01:40:52;;;;;;;5.13;2.00;;;;;;;11.96;99.57;64204.47;5030522;28;20621;-54
2023/10/30 01:43:36;;;;;;;6.00;2.60;;;;;;;11.93;99.73;64201.19;5030491;28;20205;-54
2023/10/30 01:46:01;;;;;;;5.07;2.33;;;;;;;11.90;98.99;64197.38;5030501;28;20206;-55
2023/10/30 01:48:32;;;;;;;6.60;2.20;;;;;;;11.94;99.20;64204.28;5030317;28;20220;-54
2023/10/30 01:50:59;;;;;;;4.33;2.00;;;;;;;12.00;98.94;64210.84;5030377;28;20289;-55
2023/10/30 01:53:27;;;;;;;4.23;2.13;;;;;;;11.93;98.36;64198.66;5030294;28;20292;-54
2023/10/30 01:55:55;;;;;;;4.37;2.60;;;;;;;11.84;98.85;64193.84;5030429;28;20198;-55
2023/10/30 01:58:22;;;;;;;5.57;2.87;;;;;;;11.88;98.62;64195.16;5030344;28;20217;-55
2023/10/30 02:00:48;;;;;;;4.18;2.30;;;;;;;11.66;99.45;64172.16;5030268;28;20679;-54
2023/10/30 02:03:14;;;;;;;3.90;2.03;;;;;;;11.65;100.00;64170.50;5030339;28;20217;-54
2023/10/30 02:05:40;;;;;;;4.00;2.07;;;;;;;11.62;100.00;64169.72;5030032;28;20210;-54
2023/10/30 02:08:07;;;;;;;5.33;2.30;;;;;;;11.45;100.00;64151.63;5012440;28;20229;-54
2023/10/30 02:10:32;;;;;;;5.27;2.33;;;;;;;11.44;100.00;64148.03;5030282;28;20592;-53
2023/10/30 02:12:58;;;;;;;6.23;2.57;;;;;;;11.42;100.00;64148.34;5012558;28;20220;-54
2023/10/30 02:15:23;;;;;;;4.67;2.20;;;;;;;11.43;100.00;64148.91;5029164;28;20198;-53
2023/10/30 02:17:49;;;;;;;3.73;2.10;;;;;;;11.32;100.00;64134.88;5030141;28;20206;-55
2023/10/30 02:20:15;;;;;;;8.70;3.07;;;;;;;11.38;100.00;64143.97;5030275;28;20206;-55
2023/10/30 02:22:40;;;;;;;8.23;2.53;;;;;;;11.43;100.00;64146.91;5030297;28;20318;-54
2023/10/30 02:25:06;;;;;;;2.20;2.00;;;;;;;11.75;100.00;64184.00;5030031;28;20637;-54
2023/10/30 02:27:32;;;;;;;3.63;2.40;;;;;;;11.60;100.00;64165.56;5012241;28;20214;-53
2023/10/30 02:29:58;;;;;;;5.40;2.40;;;;;;;11.79;100.00;64185.84;5030001;28;20194;-54
2023/10/30 02:32:23;;;;;;;3.80;2.00;;;;;;;11.77;100.00;64186.75;5029705;28;20206;-54
2023/10/30 02:34:49;;;;;;;2.70;2.10;;;;;;;11.65;100.00;64173.00;5029894;28;20186;-54
2023/10/30 02:37:15;;;;;;;4.37;1.87;;;;;;;11.67;100.00;64173.25;5030223;28;20333;-55
2023/10/30 02:39:40;;;;;;;3.97;2.50;;;;;;;11.48;100.00;64152.41;5030473;28;20260;-53
2023/10/30 02:42:08;;;;;;;4.43;2.23;;;;;;;11.44;100.00;64148.03;5015418;28;20637;-54
2023/10/30 02:44:34;;;;;;;1.97;1.70;;;;;;;11.26;100.00;64128.31;5033343;28;20217;-53
2023/10/30 02:46:59;;;;;;;5.27;2.23;;;;;;;11.09;100.00;64112.19;5032933;28;20598;-54
2023/10/30 02:49:25;;;;;;;3.00;2.00;;;;;;;11.18;100.00;64119.00;5033325;28;20700;-54
2023/10/30 02:51:51;;;;;;;6.67;2.70;;;;;;;11.13;100.00;64114.06;5032983;28;20575;-54
2023/10/30 02:54:17;;;;;;;5.67;2.50;;;;;;;11.25;100.00;64129.72;5033046;28;20202;-55
2023/10/30 02:56:42;;;;;;;4.33;2.07;;;;;;;11.20;100.00;64124.25;5033191;28;20727;-53
2023/10/30 02:59:08;;;;;;;3.53;1.93;;;;;;;11.19;100.00;64117.56;5033003;28;20214;-54
2023/10/30 03:01:33;;;;;;;4.50;2.20;;;;;;;11.10;100.00;64112.75;5032717;28;20607;-55
2023/10/30 03:04:00;;;;;;;3.23;2.10;;;;;;;11.24;100.00;64128.63;5033014;28;20668;-54
2023/10/30 03:06:26;;;;;;;5.10;2.33;;;;;;;11.15;100.00;64118.78;5032878;28;20756;-55
2023/10/30 03:08:52;;;;;;;3.30;2.40;;;;;;;11.32;100.00;64134.88;5032770;28;20178;-54
2023/10/30 03:11:17;;;;;;;3.53;2.07;;;;;;;11.38;100.00;64138.94;5032687;28;20256;-54
2023/10/30 03:13:43;;;;;;;4.57;2.00;;;;;;;11.35;100.00;64140.69;5032841;28;20197;-55
2023/10/30 03:16:15;;;;;;;3.03;2.30;;;;;;;11.43;100.00;64146.91;5032559;28;20229;-55
2023/10/30 03:18:41;;;;;;;5.20;2.10;;;;;;;11.46;100.00;64152.19;5032826;28;20194;-55
2023/10/30 03:21:06;;;;;;;5.40;2.07;;;;;;;11.47;100.00;64151.31;5032540;28;20534;-55
2023/10/30 03:23:31;;;;;;;3.00;2.23;;;;;;;11.44;100.00;64147.47;5032490;28;20225;-56
2023/10/30 03:25:57;;;;;;;6.30;2.10;;;;;;;11.35;100.00;64137.63;5032757;28;20563;-54
2023/10/30 03:28:23;;;;;;;3.27;2.20;;;;;;;11.36;100.00;64141.22;5032454;28;20226;-54
2023/10/30 03:30:48;;;;;;;4.03;1.90;;;;;;;11.37;100.00;64142.88;5032530;28;20626;-54
2023/10/30 03:33:14;;;;;;;5.47;2.37;;;;;;;11.32;100.00;64134.88;5032557;28;20217;-54
2023/10/30 03:35:40;;;;;;;5.17;2.13;;;;;;;11.31;100.00;64133.78;5014646;28;20202;-55
2023/10/30 03:38:06;;;;;;;2.67;1.97;;;;;;;11.32;100.00;64134.88;5032683;28;20206;-55
2023/10/30 03:40:31;;;;;;;3.53;1.70;;;;;;;11.15;100.00;64116.25;5032344;28;20289;-55
2023/10/30 03:42:57;;;;;;;4.57;2.33;;;;;;;11.21;100.00;64122.81;5032375;28;20210;-55
2023/10/30 03:45:22;;;;;;;6.07;2.17;;;;;;;11.09;100.00;64109.69;5032095;28;20580;-54
2023/10/30 03:47:48;;;;;;;3.83;2.20;;;;;;;11.21;100.00;64125.34;5032352;28;20267;-55
2023/10/30 03:50:14;;;;;;;3.23;1.90;;;;;;;11.07;100.00;64110.00;5032411;28;20727;-54
2023/10/30 03:52:40;;;;;;;5.37;2.23;;;;;;;11.16;100.00;64119.88;5013169;28;20291;-53
2023/10/30 03:55:06;;;;;;;3.00;2.07;;;;;;;11.12;100.00;64112.44;5032152;28;20660;-54
2023/10/30 03:57:32;;;;;;;5.60;2.47;;;;;;;11.05;100.00;64107.81;5066391;23;20230;-54
2023/10/30 03:59:57;;;;;;;4.37;1.77;;;;;;;11.08;100.00;64113.63;5072041;28;20204;-55
2023/10/30 04:02:23;;;;;;;4.50;2.10;;;;;;;10.94;100.00;64093.81;5071925;28;20314;-54
2023/10/30 04:04:49;;;;;;;3.60;2.00;;;;;;;10.90;100.00;64089.44;5053892;28;20201;-54
2023/10/30 04:07:15;;;;;;;4.27;2.17;;;;;;;10.85;100.00;64083.94;5071830;28;20215;-54
2023/10/30 04:09:40;;;;;;;6.27;2.33;;;;;;;10.86;100.00;64087.59;5071902;28;20237;-53
2023/10/30 04:12:06;;;;;;;3.30;1.90;;;;;;;10.82;100.00;64082.66;5072280;28;20244;-53
2023/10/30 04:14:39;;;;;;;4.83;2.23;;;;;;;11.01;100.00;64100.91;5071699;28;20209;-53
2023/10/30 04:17:04;;;;;;;7.47;2.73;;;;;;;10.96;100.00;64097.97;5071933;28;20663;-56
2023/10/30 04:19:30;;;;;;;5.13;2.50;;;;;;;11.15;100.00;64118.78;5071697;28;20200;-54
2023/10/30 04:21:55;;;;;;;6.60;2.50;;;;;;;11.14;100.00;64117.69;5071754;28;20216;-55
2023/10/30 04:24:21;;;;;;;2.70;1.63;;;;;;;11.29;100.00;64136.63;5053541;28;20293;-54
2023/10/30 04:26:46;;;;;;;3.47;1.97;;;;;;;11.24;100.00;64126.13;5071665;28;20698;-54
2023/10/30 04:29:12;;;;;;;8.00;2.10;;;;;;;11.31;100.00;64136.28;5071701;28;20192;-55
2023/10/30 04:31:37;;;;;;;6.17;2.67;;;;;;;11.40;100.00;64141.13;5071668;28;20617;-55
2023/10/30 04:34:03;;;;;;;3.77;2.13;;;;;;;11.53;100.00;64159.88;5071410;28;20192;-55
2023/10/30 04:36:28;;;;;;;3.90;2.10;;;;;;;11.36;100.00;64141.22;5053337;28;20228;-55
2023/10/30 04:38:54;;;;;;;3.70;1.63;;;;;;;11.38;100.00;64143.44;5071517;28;20200;-56
2023/10/30 04:41:20;;;;;;;5.33;2.37;;;;;;;11.25;100.00;64126.66;5071650;28;20193;-55
2023/10/30 04:43:45;;;;;;;4.03;2.10;;;;;;;11.15;100.00;64115.72;5071345;28;20760;-54
2023/10/30 04:46:11;;;;;;;5.80;2.43;;;;;;;11.13;100.00;64114.06;5071322;28;20223;-54
2023/10/30 04:48:37;;;;;;;5.63;2.17;;;;;;;11.06;100.00;64110.91;5071243;28;20212;-61
2023/10/30 04:51:03;;;;;;;5.87;2.30;;;;;;;10.97;100.00;64097.09;5071132;28;20196;-54
2023/10/30 04:53:29;;;;;;;5.53;2.53;;;;;;;10.87;100.00;64088.13;5071241;28;20600;-53
2023/10/30 04:55:56;;;;;;;4.47;2.43;;;;;;;10.96;100.00;64098.53;5071437;28;20279;-54
2023/10/30 04:58:31;;;;;;;2.83;2.07;;;;;;;11.11;100.00;64111.34;5071361;28;20204;-54
2023/10/30 05:01:12;;;;;;;3.40;2.20;;;;;;;11.07;100.00;64107.50;5051073;28;20204;-55
2023/10/30 05:03:40;;;;;;;3.40;2.03;;;;;;;11.22;100.00;64126.44;5053017;28;20257;-55
2023/10/30 05:06:10;;;;;;;3.30;2.53;;;;;;;11.11;100.00;64113.84;5053036;28;20276;-54
2023/10/30 05:08:37;;;;;;;4.80;2.53;;;;;;;11.09;100.00;64112.19;5052940;28;20205;-53
2023/10/30 05:11:03;;;;;;;4.53;2.30;;;;;;;11.10;100.00;64110.22;5053044;28;20192;-54
2023/10/30 05:13:29;;;;;;;11.03;3.57;;;;;;;11.18;100.00;64122.06;5071317;28;20265;-55
2023/10/30 05:15:57;;;;;;;4.93;2.27;;;;;;;11.16;100.00;64117.34;5070836;28;20295;-54
2023/10/30 05:18:24;;;;;;;5.50;2.80;;;;;;;11.11;100.00;64111.34;5070793;28;20307;-53
2023/10/30 05:20:50;;;;;;;5.23;2.67;;;;;;;11.08;100.00;64111.13;5070893;28;20677;-54
2023/10/30 05:23:16;;;;;;;9.80;2.30;;;;;;;11.20;100.00;64121.19;5070824;28;20224;-53
2023/10/30 05:25:42;;;;;;;11.10;2.37;;;;;;;11.09;100.00;64112.19;5071026;28;20270;-54
2023/10/30 05:28:08;;;;;;;8.17;2.57;;;;;;;11.10;100.00;64110.78;5070790;28;20216;-54
2023/10/30 05:30:35;;;;;;;6.50;2.20;;;;;;;11.18;100.00;64119.00;5070702;28;20614;-53
2023/10/30 05:33:01;;;;;;;7.90;2.70;;;;;;;11.23;100.00;64127.00;5070716;28;20214;-54
2023/10/30 05:35:26;;;;;;;3.43;2.20;;;;;;;11.14;100.00;64117.69;5070559;28;20282;-54
2023/10/30 05:37:51;;;;;;;7.83;2.80;;;;;;;11.10;100.00;64110.78;5070481;28;20631;-54
2023/10/30 05:40:17;;;;;;;5.40;2.63;;;;;;;11.12;100.00;64112.97;5070469;28;20185;-65
2023/10/30 05:42:42;;;;;;;3.23;2.23;;;;;;;11.08;100.00;64111.13;5070795;28;20213;-61
2023/10/30 05:45:08;;;;;;;5.50;2.77;;;;;;;10.89;100.00;64087.78;5070506;28;20208;-53
2023/10/30 05:47:33;;;;;;;6.50;2.80;;;;;;;10.72;100.00;64069.19;5070276;28;20208;-59
2023/10/30 05:49:59;;;;;;;4.60;2.70;;;;;;;11.03;100.00;64105.63;5070474;28;20679;-54
2023/10/30 05:52:24;;;;;;;6.27;2.60;;;;;;;10.94;100.00;64095.78;5070527;28;20213;-54
2023/10/30 05:54:50;;;;;;;3.87;2.37;;;;;;;10.98;100.00;64097.66;5070360;28;20651;-53
2023/10/30 05:57:15;;;;;;;3.23;2.00;;;;;;;11.05;100.00;64110.34;5070354;28;20217;-54
2023/10/30 05:59:41;;;;;;;5.20;2.40;;;;;;;11.20;100.00;64121.75;5070378;28;20205;-53
2023/10/30 06:02:07;;;;;;;7.07;2.40;;;;;;;11.12;100.00;64112.97;5070095;28;20751;-53
2023/10/30 06:04:32;;;;;;;4.23;2.50;;;;;;;11.16;100.00;64117.34;5070364;28;20222;-53
2023/10/30 06:06:58;;;;;;;3.27;2.07;;;;;;;11.04;100.00;64103.66;5070649;28;20215;-57
2023/10/30 06:09:26;;;;;;;4.90;2.27;;;;;;;11.02;100.00;64101.47;5070883;28;20200;-54
2023/10/30 06:11:52;;;;;;;5.47;2.90;;;;;;;11.14;100.00;64117.69;5052320;28;20270;-55
2023/10/30 06:14:17;;;;;;;7.30;2.90;;;;;;;11.27;100.00;64128.88;5070357;28;20593;-56
2023/10/30 06:16:43;;;;;;;4.87;2.60;;;;;;;11.26;100.00;64128.31;5073175;28;20204;-56
2023/10/30 06:19:10;;;;;;;7.90;3.20;;;;;;;11.44;100.00;64148.03;5072183;28;20196;-54
2023/10/30 06:21:35;;;;;;;4.97;2.40;;;;;;;11.40;100.00;64146.16;5053586;28;20370;-54
2023/10/30 06:24:01;;;;;;;4.73;2.47;;;;;;;11.56;100.00;64161.16;5055481;28;20228;-55
2023/10/30 06:26:26;;;;;;;4.77;2.60;;;;;;;11.60;100.00;64165.56;5073266;28;20209;-54
2023/10/30 06:28:52;;;;;;;3.37;2.30;;;;;;;11.64;100.00;64169.94;5073447;28;20587;-54
2023/10/30 06:31:19;;;;;;;6.57;2.13;;;;;;;11.71;100.00;64180.16;5073435;28;20211;-55
2023/10/30 06:33:46;;;;;;;4.10;2.37;;;;;;;11.88;100.00;64195.72;5073372;28;20200;-55
2023/10/30 06:36:12;;;;;;;3.90;2.50;;;;;;;11.91;100.00;64198.44;5073118;28;20346;-55
2023/10/30 06:38:38;;;;;;;6.80;2.13;;;;;;;11.99;100.00;64209.75;5073234;28;20687;-55
2023/10/30 06:41:07;;;;;;;8.00;2.80;;;;;;;12.10;100.00;64221.81;5073025;28;20583;-55
2023/10/30 06:43:32;;;;;;;4.67;2.40;;;;;;;11.92;100.00;64202.09;5073120;28;20315;-58
2023/10/30 06:46:03;;;;;;;4.07;2.20;;;;;;;12.07;100.00;64214.00;5038481;28;20292;-60
2023/10/30 06:48:28;;;;;;;11.83;2.87;;;;;;;12.32;100.00;64240.88;5072975;28;20686;-55
2023/10/30 06:50:55;;;;;;;4.17;2.40;;;;;;;12.34;100.00;64248.66;5073222;28;20208;-56
2023/10/30 06:53:20;;;;;;;7.03;2.00;;;;;;;12.46;100.00;64261.28;5072932;28;20205;-54
2023/10/30 06:55:47;;;;;;;7.90;1.90;;;;;;;12.59;100.00;64273.00;5073050;28;20205;-55
2023/10/30 06:58:13;;;;;;;3.73;1.97;;;;;;;12.78;98.19;64295.81;5072990;28;20216;-55
2023/10/30 07:00:39;;;;;;;2.47;2.20;;;;;;;12.90;97.00;64306.47;5054855;28;20204;-56
2023/10/30 07:03:04;;;;;;;4.80;2.10;;;;;;;12.88;94.89;64304.28;5072830;28;20216;-54
2023/10/30 07:05:29;;;;;;;6.22;3.03;;;;;;;12.91;95.09;64308.09;5072891;28;20647;-57
2023/10/30 07:07:55;;;;;;;6.07;2.50;;;;;;;12.88;97.06;64304.81;5072647;28;20651;-55
2023/10/30 07:10:21;;;;;;;6.28;1.90;;;;;;;13.07;96.45;64325.16;5072986;28;20177;-54
2023/10/30 07:12:47;;;;;;;5.68;2.30;;;;;;;13.16;96.83;64338.09;5054591;28;20626;-54
2023/10/30 07:15:13;;;;;;;8.10;2.42;;;;;;;13.38;93.77;64359.16;5072600;28;20224;-55
2023/10/30 07:17:38;;;;;;;3.92;2.45;;;;;;;13.53;91.88;64378.16;5072875;28;20221;-56
2023/10/30 07:20:04;;;;;;;3.90;2.67;;;;;;;13.21;92.13;64340.50;5072682;28;20250;-57
2023/10/30 07:22:29;;;;;;;6.68;2.55;;;;;;;13.26;92.21;64346.53;5054528;28;20322;-54
2023/10/30 07:24:56;;;;;;;6.72;3.15;;;;;;;13.42;93.59;64364.09;5072605;28;20205;-53
2023/10/30 07:27:24;;;;;;;6.88;2.65;;;;;;;13.49;92.79;64371.25;5072269;28;20208;-53
2023/10/30 07:29:49;;;;;;;3.83;2.38;;;;;;;13.64;92.56;64387.16;5072437;28;20621;-54
2023/10/30 07:32:15;;;;;;;8.48;2.90;;;;;;;13.89;92.22;64412.63;5054631;28;20220;-54
2023/10/30 07:34:41;;;;;;;6.88;2.90;;;;;;;14.05;90.83;64432.19;5072422;28;20675;-53
2023/10/30 07:37:07;;;;;;;9.60;5.40;;;;;;;14.17;89.47;64445.91;5072656;28;20213;-53
2023/10/30 07:39:33;;;;;;;10.20;4.63;;;;;;;14.22;86.69;64448.84;5072437;28;20618;-54
2023/10/30 07:41:59;;;;;;;11.25;5.60;;;;;;;14.60;84.09;64492.63;5054406;28;20212;-54
2023/10/30 07:44:25;;;;;;;8.45;5.18;;;;;;;14.86;83.52;64523.75;5072229;28;20197;-58
2023/10/30 07:46:50;;;;;;;14.55;5.60;;;;;;;15.22;81.00;64559.69;5037507;28;20213;-53
2023/10/30 07:49:16;;;;;;;9.43;5.15;;;;;;;15.35;79.90;64571.44;5072270;28;20209;-53
2023/10/30 07:51:41;;;;;;;11.32;6.13;;;;;;;15.35;81.27;64577.06;5072087;28;20213;-53
2023/10/30 07:54:07;;;;;;;16.38;6.28;;;;;;;15.59;78.98;64600.41;5054315;28;20212;-53
2023/10/30 07:56:33;;;;;;;13.70;6.55;;;;;;;15.94;76.31;64636.91;5072213;28;20217;-54
2023/10/30 07:58:58;;;;;;;12.45;6.68;;;;;;;16.12;74.71;64658.69;5072196;28;20193;-54
2023/10/30 08:01:24;;;;;;;13.10;6.00;;;;;;;16.28;76.50;64676.31;5072205;28;20239;-53
2023/10/30 08:03:50;;;;;;;12.52;5.53;;;;;;;16.52;72.64;64700.22;5071822;28;20218;-53
2023/10/30 08:06:15;;;;;;;9.18;5.82;;;;;;;16.64;72.61;64712.88;5072293;28;20208;-54
2023/10/30 08:08:41;;;;;;;15.85;6.40;;;;;;;16.95;71.08;64747.00;5072486;28;20258;-53
2023/10/30 08:11:06;;;;;;;8.38;5.30;;;;;;;17.12;71.05;64770.28;5071942;28;20590;-53
2023/10/30 08:13:33;;;;;;;9.88;6.40;;;;;;;17.14;69.09;64767.41;5072131;28;20204;-53
2023/10/30 08:15:58;;;;;;;14.00;6.35;;;;;;;16.85;68.93;64736.00;5037452;28;20208;-54
2023/10/30 08:18:25;;;;;;;9.15;6.28;;;;;;;16.87;68.87;64738.19;5097143;22;20234;-53
2023/10/30 08:20:51;;;;;;;10.00;5.13;;;;;;;17.21;67.68;64775.66;5092154;28;20569;-53
2023/10/30 08:23:16;;;;;;;12.88;6.90;;;;;;;17.41;65.86;64802.25;5091681;28;20212;-54
2023/10/30 08:25:42;;;;;;;13.27;6.40;;;;;;;17.73;64.28;64832.44;5091844;28;20299;-54
2023/10/30 08:28:08;;;;;;;9.95;6.25;;;;;;;17.87;63.99;64847.31;5092085;28;20667;-54
2023/10/30 08:30:34;;;;;;;12.90;6.82;;;;;;;18.40;63.01;64906.28;5091839;28;20192;-55
2023/10/30 08:33:03;;;;;;;13.20;6.40;;;;;;;18.25;61.69;64889.22;5091641;28;20592;-53
2023/10/30 08:35:29;;;;;;;13.77;6.45;;;;;;;18.70;61.58;64938.88;5091604;28;20232;-53
2023/10/30 08:37:57;;;;;;;15.25;5.18;;;;;;;18.93;60.02;64963.69;5090887;28;20291;-53
2023/10/30 08:40:23;;;;;;;10.38;5.82;;;;;;;18.81;61.96;64953.00;5091566;28;20208;-53
2023/10/30 08:42:49;;;;;;;11.70;6.57;;;;;;;19.39;59.83;65014.50;5091515;28;20302;-54
2023/10/30 08:45:15;;;;;;;14.85;6.57;;;;;;;19.66;56.90;65044.28;5091538;28;20322;-53
2023/10/30 08:47:41;;;;;;;10.95;5.60;;;;;;;19.56;57.08;65033.25;5091543;28;20239;-55
2023/10/30 08:50:08;;;;;;;13.75;6.35;;;;;;;19.60;57.67;65037.66;5073554;28;20617;-54
2023/10/30 08:52:34;;;;;;;11.73;5.75;;;;;;;20.00;55.66;65081.28;5073341;28;20316;-53
2023/10/30 08:54:59;;;;;;;12.15;5.25;;;;;;;20.08;55.95;65088.13;5091599;28;20270;-54
2023/10/30 08:57:24;;;;;;;11.23;5.45;;;;;;;20.29;57.11;65112.78;5091786;28;20598;-54
2023/10/30 08:59:50;;;;;;;11.90;5.55;;;;;;;20.04;55.67;65090.81;5073160;28;20221;-54
2023/10/30 09:02:15;;;;;;;7.63;4.82;;;;;;;20.07;55.60;65089.59;5091366;28;20224;-55
2023/10/30 09:04:41;;;;;;;11.25;5.55;;;;;;;20.54;55.91;65140.44;5091078;28;20204;-53
2023/10/30 09:07:06;;;;;;;17.67;5.82;;;;;;;21.01;53.03;65191.84;5091085;28;20317;-56
2023/10/30 09:09:32;;;;;;;11.05;5.75;;;;;;;21.00;51.88;65191.28;5091309;28;20697;-56
2023/10/30 09:11:58;;;;;;;16.42;5.97;;;;;;;21.37;51.98;65231.66;5073089;28;20620;-54
2023/10/30 09:14:23;;;;;;;11.85;6.13;;;;;;;21.41;51.27;65236.63;5072955;28;20573;-54
2023/10/30 09:16:49;;;;;;;9.82;5.82;;;;;;;21.79;51.78;65280.69;5091520;28;20204;-53
2023/10/30 09:19:15;;;;;;;14.60;6.70;;;;;;;22.10;51.11;65312.44;5091255;28;20200;-57
2023/10/30 09:21:41;;;;;;;10.30;5.55;;;;;;;22.40;49.95;65343.06;5091465;28;20216;-53
2023/10/30 09:24:06;;;;;;;11.23;6.65;;;;;;;22.71;51.48;65378.88;5090936;28;20695;-53
2023/10/30 09:26:32;;;;;;;9.05;5.13;;;;;;;22.86;48.96;65396.06;5091134;28;20200;-52
2023/10/30 09:28:57;;;;;;;14.23;5.25;;;;;;;23.12;48.28;65424.84;5091196;28;20207;-56
2023/10/30 09:31:22;;;;;;;11.68;5.85;;;;;;;23.45;47.64;65460.88;5090984;28;20761;-53
2023/10/30 09:33:48;;;;;;;19.20;5.93;;;;;;;23.65;48.94;65485.63;5072931;28;20583;-55
2023/10/30 09:36:14;;;;;;;10.57;5.47;;;;;;;23.83;46.52;65499.84;5090783;28;20211;-58
2023/10/30 09:38:41;;;;;;;13.55;5.18;;;;;;;23.46;47.55;65461.41;5072540;28;20628;-58
2023/10/30 09:41:10;;;;;;;10.23;5.95;;;;;;;23.85;46.38;65502.06;5090682;28;20245;-53
2023/10/30 09:43:37;;;;;;;11.68;5.20;;;;;;;23.51;46.80;65467.53;5090593;28;20298;-53
2023/10/30 09:46:06;;;;;;;9.45;4.95;;;;;;;23.88;46.84;65507.97;5072713;28;20204;-57
2023/10/30 09:48:33;;;;;;;12.30;5.05;;;;;;;23.57;45.86;65473.63;5090656;28;20207;-53
2023/10/30 09:51:00;;;;;;;9.25;4.88;;;;;;;24.07;45.44;65531.63;5093207;28;20192;-53
2023/10/30 09:53:26;;;;;;;9.50;5.00;;;;;;;24.23;45.42;65544.22;5094095;28;20285;-53
2023/10/30 09:55:54;;;;;;;7.97;4.70;;;;;;;24.45;46.67;65568.06;5094237;28;20669;-52
2023/10/30 09:58:23;;;;;;;22.92;5.43;;;;;;;24.59;45.59;65584.13;5094351;28;20260;-55
2023/10/30 10:00:48;;;;;;;11.63;5.25;;;;;;;24.59;45.39;65586.16;5075996;28;20666;-52
2023/10/30 10:03:15;;;;;;;10.45;5.45;;;;;;;24.70;44.42;65598.94;5093957;28;20212;-58
2023/10/30 10:05:40;;;;;;;14.05;4.20;;;;;;;24.66;45.46;65594.50;5094269;28;20184;-53
2023/10/30 10:08:10;;;;;;;12.85;4.68;;;;;;;24.87;43.88;65617.22;5094005;28;20222;-53
2023/10/30 10:10:55;;;;;;;7.45;3.90;;;;;;;25.07;44.08;65638.88;5094164;28;20207;-53
2023/10/30 10:13:22;;;;;;;8.88;3.40;;;;;;;25.02;43.21;65630.75;5094532;28;20723;-53
2023/10/30 10:15:48;;;;;;;7.35;3.97;;;;;;;24.50;43.36;65573.59;5093926;28;20223;-51
2023/10/30 10:18:30;;;;;;;10.60;3.63;;;;;;;24.97;45.20;65625.75;5094023;28;20227;-58
2023/10/30 10:21:11;;;;;;;6.35;3.63;;;;;;;25.28;43.59;65657.03;5094053;28;20204;-53
2023/10/30 10:23:38;;;;;;;8.23;3.58;;;;;;;25.66;43.16;65702.34;5093855;28;20212;-52
2023/10/30 10:26:05;;;;;;;4.97;3.58;;;;;;;25.49;41.87;65683.47;5093897;28;20208;-53
2023/10/30 10:28:32;;;;;;;9.73;3.15;;;;;;;25.06;41.57;65635.19;5093651;28;20196;-52
2023/10/30 10:30:58;;;;;;;8.45;3.30;;;;;;;24.62;43.37;65587.47;5093458;28;20208;-53
2023/10/30 10:33:30;;;;;;;11.80;3.42;;;;;;;24.86;44.03;65616.69;5075641;28;20204;-51
2023/10/30 10:36:04;;;;;;;7.30;3.22;;;;;;;25.04;43.53;65635.53;5093363;28;20247;-52
2023/10/30 10:38:31;;;;;;;9.18;3.25;;;;;;;24.62;44.71;65587.47;5075452;28;20186;-57
2023/10/30 10:40:57;;;;;;;11.05;4.03;;;;;;;25.04;44.10;65632.97;5093538;28;20195;-53
2023/10/30 10:43:24;;;;;;;7.10;3.63;;;;;;;24.74;43.04;65603.38;5093398;28;20216;-52
2023/10/30 10:45:54;;;;;;;9.32;3.95;;;;;;;25.21;43.11;65652.38;5093617;28;20206;-52
2023/10/30 10:48:21;;;;;;;6.70;3.08;;;;;;;25.29;44.01;65661.25;5074959;28;20208;-52
2023/10/30 10:50:50;;;;;;;12.75;3.97;;;;;;;25.57;43.87;65691.81;5093362;28;20200;-52
2023/10/30 10:53:20;;;;;;;7.80;3.90;;;;;;;25.73;43.19;65712.69;5093252;28;20204;-53
2023/10/30 10:55:50;;;;;;;10.32;3.58;;;;;;;25.56;42.42;65690.69;5093358;28;20535;-53
2023/10/30 10:58:43;;;;;;;8.27;3.53;;;;;;;25.96;43.16;65735.09;5093209;28;20200;-54
2023/10/30 11:01:15;;;;;;;6.13;3.30;;;;;;;25.67;42.91;65706.03;5092870;28;20253;-56
2023/10/30 11:03:41;;;;;;;9.48;3.67;;;;;;;25.93;41.76;65729.19;5093276;28;20219;-53
2023/10/30 11:06:07;;;;;;;7.65;3.38;;;;;;;25.70;42.79;65706.81;5093423;28;20197;-53
2023/10/30 11:08:53;;;;;;;10.55;3.25;;;;;;;25.69;42.03;65702.56;5093178;28;20215;-52
2023/10/30 11:11:30;;;;;;;9.85;3.72;;;;;;;25.72;41.88;65711.59;5074859;28;20689;-54
2023/10/30 11:14:23;;;;;;;5.57;2.72;;;;;;;25.84;42.34;65721.78;5092763;28;20215;-53
2023/10/30 11:17:03;;;;;;;8.77;3.10;;;;;;;25.49;41.71;65682.94;5093221;28;20290;-53
2023/10/30 11:19:29;;;;;;;8.25;3.72;;;;;;;25.45;41.73;65678.50;5092913;28;20218;-53
2023/10/30 11:21:55;;;;;;;6.90;3.22;;;;;;;25.25;42.18;65656.28;5092847;28;20219;-53
2023/10/30 11:24:38;;;;;;;7.20;2.88;;;;;;;25.29;41.46;65661.25;5092856;28;20705;-53
2023/10/30 11:27:25;;;;;;;5.72;3.40;;;;;;;24.91;41.78;65619.66;5074632;28;20207;-52